Time;durP1;ratioP1;P1;durP2;ratioP2;P2;SDS_P1;SDS_P2;PMS_P1;PMS_P2;Temp;Humidity;BMP_temperature;BMP_pressure;BME280_temperature;BME280_humidity;BME280_pressure;Samples;Min_cycle;Max_cycle;Signal;HPM_P1;HPM_P2
2023/07/09 02:46:37;;;;;;;1.00;0.80;;;;;;;18.03;100.00;100184.67;86275;1299;545620;-65
2023/07/09 02:48:39;;;;;;;2.50;0.80;;;;;;;18.03;100.00;100184.67;87572;1282;137917;-64
2023/07/09 02:50:40;;;;;;;2.80;0.80;;;;;;;18.02;100.00;100180.88;87505;1274;25447;-63
2023/07/09 02:52:42;;;;;;;1.60;0.70;;;;;;;18.04;100.00;100182.64;87476;1285;140124;-63
2023/07/09 02:54:44;;;;;;;2.00;0.90;;;;;;;18.05;100.00;100179.09;87463;1282;24487;-64
2023/07/09 02:56:46;;;;;;;1.50;0.70;;;;;;;18.04;100.00;100173.64;87347;1284;138781;-63
2023/07/09 02:58:49;;;;;;;2.10;0.70;;;;;;;18.01;100.00;100170.56;87480;1288;22651;-64
2023/07/09 03:00:52;;;;;;;2.00;0.70;;;;;;;18.00;100.00;100173.30;87317;1279;139021;-64
2023/07/09 03:02:54;;;;;;;0.90;0.90;;;;;;;18.00;100.00;100175.14;87517;1285;25447;-65
2023/07/09 03:04:56;;;;;;;1.20;0.50;;;;;;;18.01;100.00;100165.61;87316;1289;139412;-68
2023/07/09 03:06:59;;;;;;;0.90;0.90;;;;;;;18.02;100.00;100164.59;87602;1283;25424;-66
2023/07/09 03:09:03;;;;;;;3.00;1.00;;;;;;;18.02;100.00;100165.25;87507;1287;137932;-65
2023/07/09 03:11:12;;;;;;;1.10;0.50;;;;;;;18.03;100.00;100164.13;87608;1282;22540;-64
2023/07/09 03:13:14;;;;;;;1.80;0.90;;;;;;;18.05;100.00;100169.73;87708;1286;138235;-65
2023/07/09 03:15:16;;;;;;;0.40;0.40;;;;;;;18.07;100.00;100160.42;90721;1282;22878;-63
2023/07/09 03:17:17;;;;;;;1.60;0.80;;;;;;;18.09;100.00;100161.48;90537;1285;140930;-64
2023/07/09 03:19:19;;;;;;;4.10;1.30;;;;;;;18.13;100.00;100163.77;90632;1284;22250;-64
2023/07/09 03:21:22;;;;;;;2.40;0.90;;;;;;;18.17;100.00;100160.06;90588;1282;139155;-64
2023/07/09 03:23:24;;;;;;;1.30;1.00;;;;;;;18.21;100.00;100157.86;90710;1285;23054;-64
2023/07/09 03:25:26;;;;;;;0.50;0.40;;;;;;;18.25;100.00;100154.48;90586;1282;138916;-64
2023/07/09 03:27:27;;;;;;;4.70;0.90;;;;;;;18.28;100.00;100155.45;90705;1282;22231;-64
2023/07/09 03:29:29;;;;;;;0.80;0.70;;;;;;;18.30;100.00;100155.05;90616;1283;139425;-64
2023/07/09 03:31:34;;;;;;;1.50;0.60;;;;;;;18.32;100.00;100155.24;90735;1282;22307;-64
2023/07/09 03:33:36;;;;;;;3.90;1.00;;;;;;;18.37;100.00;100159.11;90585;1282;138024;-65
2023/07/09 03:35:39;;;;;;;0.90;0.60;;;;;;;18.43;100.00;100160.34;90697;1283;22392;-66
2023/07/09 03:37:40;;;;;;;1.30;0.80;;;;;;;18.48;100.00;100164.20;90617;1285;137972;-65
2023/07/09 03:39:42;;;;;;;1.60;0.70;;;;;;;18.55;100.00;100160.64;90706;1282;22331;-65
2023/07/09 03:41:44;;;;;;;2.80;0.60;;;;;;;18.62;100.00;100165.49;90886;1275;138220;-66
2023/07/09 03:43:46;;;;;;;1.30;0.90;;;;;;;18.73;100.00;100162.70;90965;1276;22313;-65
2023/07/09 03:45:48;;;;;;;0.60;0.60;;;;;;;18.88;100.00;100166.46;90868;1278;137971;-65
2023/07/09 03:47:50;;;;;;;1.70;0.70;;;;;;;19.05;99.84;100165.73;90980;1278;22156;-65
2023/07/09 03:49:52;;;;;;;1.20;0.40;;;;;;;19.25;99.04;100167.27;90883;1276;138540;-65
2023/07/09 03:51:53;;;;;;;1.10;0.80;;;;;;;19.65;96.42;100170.20;90966;1275;22364;-65
2023/07/09 03:53:55;;;;;;;2.80;0.60;;;;;;;19.92;94.81;100171.34;90891;1278;136977;-65
2023/07/09 03:55:59;;;;;;;3.00;0.60;;;;;;;20.11;93.59;100172.06;90928;1279;22442;-64
2023/07/09 03:58:04;;;;;;;1.00;0.40;;;;;;;20.09;92.86;100171.12;90878;1276;138472;-66
2023/07/09 04:00:10;;;;;;;;;;;;;;;20.05;92.98;100170.38;90890;1276;138824;-64
2023/07/09 04:02:17;;;;;;;2.80;0.90;;;;;;;20.09;93.21;100170.38;90815;1275;22347;-65
2023/07/09 04:04:20;;;;;;;1.20;0.70;;;;;;;20.18;92.17;100174.56;90880;1275;138323;-66
2023/07/09 04:06:22;;;;;;;2.20;0.70;;;;;;;20.28;91.47;100175.41;90953;1275;23130;-67
2023/07/09 04:08:25;;;;;;;4.60;0.70;;;;;;;20.31;91.06;100171.77;90744;1276;137284;-65
2023/07/09 04:10:27;;;;;;;1.20;0.50;;;;;;;20.45;90.36;100171.73;90901;1275;22328;-67
2023/07/09 04:12:28;;;;;;;0.90;0.60;;;;;;;20.56;89.62;100172.31;90815;1275;139014;-65
2023/07/09 04:14:30;;;;;;;1.40;0.50;;;;;;;20.46;89.48;100171.20;90935;1275;22340;-66
2023/07/09 04:16:31;;;;;;;1.00;0.60;;;;;;;20.40;89.75;100168.77;90782;1276;137560;-67
2023/07/09 04:18:35;;;;;;;0.80;0.60;;;;;;;20.48;89.57;100169.75;90916;1276;22421;-67
2023/07/09 04:20:37;;;;;;;1.00;0.50;;;;;;;20.61;88.97;100167.21;90830;1276;137506;-67
2023/07/09 04:22:39;;;;;;;1.00;0.90;;;;;;;20.66;87.98;100167.48;90867;1275;23032;-65
2023/07/09 04:24:41;;;;;;;0.60;0.60;;;;;;;20.64;87.86;100170.23;90810;1276;137225;-65
2023/07/09 04:26:43;;;;;;;4.00;1.00;;;;;;;20.54;87.54;100172.50;90930;1276;22319;-65
2023/07/09 04:28:45;;;;;;;1.40;1.20;;;;;;;20.43;88.44;100170.52;90844;1277;137324;-64
2023/07/09 04:30:50;;;;;;;2.70;0.50;;;;;;;20.38;89.03;100175.08;90932;1275;22426;-64
2023/07/09 04:32:52;;;;;;;2.20;0.90;;;;;;;20.33;88.64;100174.65;90688;1265;137107;-65
2023/07/09 04:34:54;;;;;;;3.50;2.50;;;;;;;20.31;89.32;100178.86;90953;1275;22367;-66
2023/07/09 04:36:55;;;;;;;1.00;0.90;;;;;;;20.42;89.13;100175.12;90864;1275;137513;-65
2023/07/09 04:38:57;;;;;;;1.10;0.80;;;;;;;20.60;88.08;100180.31;90966;1274;22430;-64
2023/07/09 04:40:59;;;;;;;2.20;1.40;;;;;;;20.74;86.78;100181.84;90872;1275;140446;-65
2023/07/09 04:43:00;;;;;;;2.20;2.00;;;;;;;20.95;86.52;100183.82;90908;1276;22310;-65
2023/07/09 04:45:02;;;;;;;1.60;1.30;;;;;;;21.14;85.23;100185.84;90856;1276;137239;-63
2023/07/09 04:47:04;;;;;;;3.60;3.20;;;;;;;21.22;83.86;100188.55;90974;1270;23619;-61
2023/07/09 04:49:06;;;;;;;4.30;1.90;;;;;;;21.27;83.33;100188.67;90864;1276;141582;-64
2023/07/09 04:51:08;;;;;;;5.90;5.40;;;;;;;21.40;82.60;100183.70;90980;1275;22356;-63
2023/07/09 04:53:11;;;;;;;1.90;1.20;;;;;;;21.60;81.97;100183.98;90877;1276;138891;-63
2023/07/09 04:55:13;;;;;;;1.70;1.60;;;;;;;21.77;80.17;100179.54;90944;1276;23108;-63
2023/07/09 04:57:14;;;;;;;1.50;1.20;;;;;;;21.83;79.94;100178.90;90836;1276;138050;-64
2023/07/09 04:59:16;;;;;;;3.10;2.10;;;;;;;21.86;80.29;100180.86;90969;1275;22321;-64
2023/07/09 05:01:18;;;;;;;4.10;3.70;;;;;;;21.94;79.48;100174.38;90849;1276;137162;-64
2023/07/09 05:03:19;;;;;;;2.50;2.20;;;;;;;22.05;79.11;100177.75;91025;1275;22411;-65
2023/07/09 05:05:21;;;;;;;1.30;1.20;;;;;;;22.25;78.17;100174.44;90844;1274;137512;-64
2023/07/09 05:07:23;;;;;;;2.30;1.40;;;;;;;22.54;77.45;100175.39;91001;1275;22428;-63
2023/07/09 05:09:25;;;;;;;2.50;0.70;;;;;;;22.85;76.13;100164.77;90862;1276;137614;-63
2023/07/09 05:11:26;;;;;;;1.80;0.60;;;;;;;23.24;74.16;100173.77;91008;1276;22427;-64
2023/07/09 05:13:28;;;;;;;2.20;1.80;;;;;;;23.45;72.54;100172.73;90872;1274;138261;-61
2023/07/09 05:15:30;;;;;;;5.90;4.10;;;;;;;23.60;71.71;100170.92;90987;1276;22494;-65
2023/07/09 05:17:31;;;;;;;1.90;1.80;;;;;;;23.74;70.47;100170.70;90836;1274;136994;-61
2023/07/09 05:19:33;;;;;;;3.20;1.80;;;;;;;23.86;70.60;100171.36;90965;1272;22344;-62
2023/07/09 05:21:35;;;;;;;2.60;2.40;;;;;;;24.00;69.14;100165.73;90826;1274;137196;-62
2023/07/09 05:23:36;;;;;;;2.50;1.50;;;;;;;24.07;68.18;100165.19;90932;1273;22334;-62
2023/07/09 05:25:38;;;;;;;1.70;0.80;;;;;;;24.17;68.34;100163.93;90873;1274;138335;-64
2023/07/09 05:27:40;;;;;;;1.30;0.60;;;;;;;24.24;67.12;100165.41;90981;1273;22384;-63
2023/07/09 05:29:41;;;;;;;1.40;0.70;;;;;;;24.18;66.39;100166.21;90883;1274;138570;-63
2023/07/09 05:31:43;;;;;;;0.90;0.80;;;;;;;24.07;67.46;100163.73;91010;1273;23119;-63
2023/07/09 05:33:44;;;;;;;0.80;0.40;;;;;;;24.03;66.31;100164.73;90923;1273;137163;-64
2023/07/09 05:35:47;;;;;;;0.70;0.60;;;;;;;23.90;66.90;100168.30;90982;1273;22370;-63
2023/07/09 05:37:48;;;;;;;0.90;0.70;;;;;;;23.76;67.49;100169.01;90877;1273;138653;-63
2023/07/09 05:39:50;;;;;;;1.00;0.50;;;;;;;23.69;68.14;100170.13;90996;1273;22315;-63
2023/07/09 05:41:51;;;;;;;1.60;0.60;;;;;;;23.65;69.00;100170.31;90895;1273;137247;-62
2023/07/09 05:43:53;;;;;;;2.20;0.80;;;;;;;23.67;69.37;100165.08;91033;1276;22407;-63
2023/07/09 05:45:55;;;;;;;1.70;1.00;;;;;;;23.87;69.67;100171.96;90889;1273;137978;-63
2023/07/09 05:47:58;;;;;;;2.80;0.60;;;;;;;24.17;68.37;100167.85;91031;1273;22994;-64
2023/07/09 05:49:59;;;;;;;2.00;0.80;;;;;;;24.38;67.34;100166.48;90923;1273;136900;-68
2023/07/09 05:52:01;;;;;;;4.60;0.90;;;;;;;24.54;66.12;100171.79;91044;1276;22325;-66
2023/07/09 05:54:03;;;;;;;0.70;0.60;;;;;;;24.55;65.25;100165.30;91032;1275;22330;-72
2023/07/09 05:56:05;;;;;;;0.90;0.40;;;;;;;24.57;65.49;100166.14;90909;1273;138251;-71
2023/07/09 05:58:07;;;;;;;1.20;0.50;;;;;;;24.73;64.61;100176.16;91047;1273;22333;-72
2023/07/09 06:00:10;;;;;;;1.60;0.40;;;;;;;24.82;64.03;100173.71;90908;1269;138701;-71
2023/07/09 06:02:20;;;;;;;2.60;0.70;;;;;;;24.87;63.83;100172.80;90997;1273;22323;-71
2023/07/09 06:04:22;;;;;;;0.90;0.60;;;;;;;24.91;62.70;100172.88;90945;1276;138456;-70
2023/07/09 06:06:24;;;;;;;0.60;0.30;;;;;;;24.80;61.22;100169.82;90965;1273;22327;-72
2023/07/09 06:08:26;;;;;;;4.00;0.80;;;;;;;24.66;62.73;100169.77;90892;1273;137925;-71
2023/07/09 06:10:27;;;;;;;1.20;0.70;;;;;;;24.62;64.09;100171.94;90988;1273;22277;-71
2023/07/09 06:12:29;;;;;;;3.00;0.90;;;;;;;24.68;64.10;100171.13;90851;1273;138543;-71
2023/07/09 06:14:32;;;;;;;2.50;2.30;;;;;;;24.76;63.58;100167.06;91014;1264;22357;-66
2023/07/09 06:16:33;;;;;;;1.00;0.90;;;;;;;24.87;62.12;100165.05;90951;1273;137401;-71
2023/07/09 06:18:35;;;;;;;3.80;3.40;;;;;;;24.95;61.35;100172.45;90921;1275;22237;-72
2023/07/09 06:20:38;;;;;;;2.10;0.90;;;;;;;24.98;61.66;100173.19;90931;1273;137380;-71
2023/07/09 06:22:39;;;;;;;2.80;0.60;;;;;;;24.96;60.79;100173.36;91028;1274;22351;-73
2023/07/09 06:24:41;;;;;;;1.50;0.50;;;;;;;24.83;60.55;100167.70;90907;1273;138553;-71
2023/07/09 06:26:43;;;;;;;5.50;0.60;;;;;;;24.76;61.70;100165.48;90999;1274;22352;-76
2023/07/09 06:28:45;;;;;;;4.30;3.90;;;;;;;24.80;60.96;100167.58;90904;1274;137586;-75
2023/07/09 06:30:47;;;;;;;2.00;1.50;;;;;;;24.80;60.82;100164.47;91045;1273;22322;-70
2023/07/09 06:32:49;;;;;;;4.70;1.60;;;;;;;24.80;60.73;100162.77;90953;1276;138750;-68
2023/07/09 06:34:50;;;;;;;0.20;0.20;;;;;;;24.83;61.18;100160.17;91000;1276;23185;-67
2023/07/09 06:36:52;;;;;;;1.90;0.30;;;;;;;24.81;61.01;100161.47;90904;1273;140217;-67
2023/07/09 06:38:54;;;;;;;1.10;0.50;;;;;;;24.74;60.82;100156.90;91015;1273;22162;-67
2023/07/09 06:40:57;;;;;;;1.70;0.50;;;;;;;24.72;61.18;100157.02;90856;1273;137924;-66
2023/07/09 06:42:58;;;;;;;0.80;0.60;;;;;;;24.77;59.71;100158.78;90978;1273;22366;-69
2023/07/09 06:45:06;;;;;;;1.90;0.30;;;;;;;24.85;60.33;100161.09;90823;1264;139164;-67
2023/07/09 06:47:07;;;;;;;2.80;1.60;;;;;;;24.98;59.63;100158.63;90939;1273;23445;-66
2023/07/09 06:49:09;;;;;;;0.80;0.30;;;;;;;25.07;59.53;100156.34;90871;1272;138179;-68
2023/07/09 06:51:12;;;;;;;1.30;0.40;;;;;;;25.10;59.09;100153.09;90888;1273;22223;-66
2023/07/09 06:53:14;;;;;;;2.90;0.30;;;;;;;25.20;59.22;100154.08;90889;1274;138743;-66
2023/07/09 06:55:15;;;;;;;4.10;0.50;;;;;;;25.31;58.84;100149.77;91008;1273;22306;-67
2023/07/09 06:57:17;;;;;;;2.60;0.40;;;;;;;25.33;58.16;100148.98;90801;1274;138731;-67
2023/07/09 06:59:19;;;;;;;2.70;0.30;;;;;;;25.40;58.88;100144.15;90953;1273;23023;-67
2023/07/09 07:01:20;;;;;;;3.20;0.40;;;;;;;25.54;59.33;100141.02;90880;1273;139140;-69
2023/07/09 07:03:25;;;;;;;3.30;0.60;;;;;;;25.75;59.94;100134.08;90944;1273;23251;-66
2023/07/09 07:05:27;;;;;;;0.90;0.40;;;;;;;26.00;59.69;100132.14;90831;1275;138606;-67
2023/07/09 07:07:29;;;;;;;1.90;0.30;;;;;;;26.25;58.83;100128.55;91009;1273;22260;-68
2023/07/09 07:09:30;;;;;;;1.80;0.40;;;;;;;26.42;58.05;100126.50;90905;1273;139769;-67
2023/07/09 07:11:32;;;;;;;1.00;0.50;;;;;;;26.45;56.90;100129.73;90937;1273;22799;-68
2023/07/09 07:13:43;;;;;;;0.90;0.50;;;;;;;26.40;57.63;100134.62;90782;1273;138343;-66
2023/07/09 07:15:49;;;;;;;2.00;0.80;;;;;;;26.33;57.81;100122.66;90914;1273;22425;-66
2023/07/09 07:17:51;;;;;;;1.80;0.40;;;;;;;26.45;58.54;100132.84;90874;1274;138550;-68
2023/07/09 07:19:52;;;;;;;0.80;0.30;;;;;;;26.58;57.16;100134.12;90970;1273;22319;-70
2023/07/09 07:22:32;;;;;;;0.90;0.30;;;;;;;26.54;55.71;100138.93;90850;1273;138226;-68
2023/07/09 07:24:34;;;;;;;1.30;1.20;;;;;;;26.42;56.18;100137.55;90504;1273;137442;-71
2023/07/09 07:26:36;;;;;;;1.10;0.40;;;;;;;26.35;56.36;100136.97;90998;1279;22743;-67
2023/07/09 07:28:37;;;;;;;2.10;0.90;;;;;;;26.31;56.64;100136.96;90877;1273;138639;-66
2023/07/09 07:30:39;;;;;;;1.40;0.30;;;;;;;26.37;56.60;100137.58;91012;1274;22329;-67
2023/07/09 07:32:46;;;;;;;2.30;0.80;;;;;;;26.43;54.67;100135.84;90861;1273;137945;-67
2023/07/09 07:34:48;;;;;;;0.70;0.30;;;;;;;26.41;54.26;100134.45;90894;1276;22374;-66
2023/07/09 07:36:50;;;;;;;1.80;0.50;;;;;;;26.36;54.17;100132.67;90804;1276;138906;-67
2023/07/09 07:38:52;;;;;;;1.90;0.30;;;;;;;26.33;54.13;100128.45;90897;1277;22335;-69
2023/07/09 07:40:53;;;;;;;1.20;0.40;;;;;;;26.26;53.60;100132.57;90810;1276;137821;-65
2023/07/09 07:42:55;;;;;;;2.60;0.50;;;;;;;26.13;53.20;100134.76;90850;1275;22340;-65
2023/07/09 07:44:57;;;;;;;1.80;1.30;;;;;;;25.95;54.52;100129.02;90868;1273;138120;-65
2023/07/09 07:46:59;;;;;;;2.50;0.20;;;;;;;25.81;54.61;100134.86;91112;1257;23582;-63
2023/07/09 07:49:00;;;;;;;0.30;0.10;;;;;;;25.74;55.38;100133.38;91119;1270;140059;-66
2023/07/09 07:51:03;;;;;;;1.10;0.60;;;;;;;25.73;55.25;100132.96;91231;1270;22968;-67
2023/07/09 07:53:05;;;;;;;1.80;0.70;;;;;;;25.74;55.21;100127.26;91108;1270;137971;-67
2023/07/09 07:55:08;;;;;;;1.80;0.70;;;;;;;25.70;55.30;100128.09;91137;1264;22362;-67
2023/07/09 07:57:12;;;;;;;0.50;0.20;;;;;;;25.66;54.64;100131.52;91113;1270;138778;-67
2023/07/09 07:59:15;;;;;;;1.20;0.70;;;;;;;25.60;54.81;100129.05;91245;1270;22309;-66
2023/07/09 08:01:16;;;;;;;0.40;0.40;;;;;;;25.45;55.12;100122.31;91069;1270;137826;-69
2023/07/09 08:03:18;;;;;;;2.10;0.50;;;;;;;25.32;56.14;100121.92;91228;1269;22236;-68
2023/07/09 08:05:20;;;;;;;0.50;0.20;;;;;;;25.25;56.23;100126.16;91138;1270;138534;-68
2023/07/09 08:07:21;;;;;;;1.40;0.20;;;;;;;25.20;55.87;100123.08;91232;1270;22998;-67
2023/07/09 08:09:23;;;;;;;2.40;0.70;;;;;;;25.17;55.65;100122.25;91129;1270;138323;-67
2023/07/09 08:11:25;;;;;;;1.90;0.30;;;;;;;25.14;55.38;100122.17;91202;1270;22204;-67
2023/07/09 08:13:26;;;;;;;2.90;0.40;;;;;;;25.10;55.51;100123.31;91161;1269;137914;-68
2023/07/09 08:15:28;;;;;;;1.00;0.20;;;;;;;25.02;55.48;100126.34;91240;1270;23279;-67
2023/07/09 08:17:30;;;;;;;2.20;0.50;;;;;;;24.93;56.38;100116.85;91126;1270;138719;-67
2023/07/09 08:19:32;;;;;;;0.70;0.20;;;;;;;24.86;56.53;100113.65;91239;1270;22179;-67
2023/07/09 08:21:33;;;;;;;0.80;0.20;;;;;;;24.88;56.06;100116.14;91099;1270;137524;-67
2023/07/09 08:23:35;;;;;;;2.00;0.70;;;;;;;24.92;56.70;100113.66;91208;1270;22210;-67
2023/07/09 08:25:37;;;;;;;2.00;0.20;;;;;;;24.93;56.60;100107.58;91008;1271;138592;-67
2023/07/09 08:27:38;;;;;;;1.40;0.40;;;;;;;24.91;56.37;100113.60;91273;1270;22349;-67
2023/07/09 08:29:41;;;;;;;1.90;0.20;;;;;;;24.92;56.52;100111.30;91108;1270;137466;-67
2023/07/09 08:31:43;;;;;;;2.30;0.80;;;;;;;24.93;55.87;100116.64;91213;1270;22383;-67
2023/07/09 08:33:45;;;;;;;1.20;0.60;;;;;;;24.93;55.94;100111.73;91112;1270;137456;-66
2023/07/09 08:35:52;;;;;;;0.40;0.40;;;;;;;24.95;55.84;100112.09;91250;1269;22315;-68
2023/07/09 08:37:53;;;;;;;0.60;0.20;;;;;;;25.01;55.98;100115.02;91144;1270;138746;-67
2023/07/09 08:39:55;;;;;;;0.80;0.30;;;;;;;25.08;55.98;100117.71;91245;1270;23029;-67
2023/07/09 08:42:07;;;;;;;1.50;0.80;;;;;;;25.11;55.96;100119.64;91128;1270;138154;-66
2023/07/09 08:44:27;;;;;;;0.60;0.10;;;;;;;25.15;56.42;100116.17;91198;1269;138728;-67
2023/07/09 08:46:47;;;;;;;2.30;0.30;;;;;;;25.11;56.32;100102.20;91294;1269;22383;-66
2023/07/09 08:48:52;;;;;;;0.70;0.20;;;;;;;25.12;55.70;100101.73;91164;1269;137938;-66
2023/07/09 08:50:59;;;;;;;1.90;0.10;;;;;;;25.21;55.10;100119.75;91290;1269;22835;-66
2023/07/09 08:53:01;;;;;;;0.60;0.20;;;;;;;25.21;54.56;100123.83;91158;1269;139491;-65
2023/07/09 08:55:13;;;;;;;0.60;0.30;;;;;;;25.21;54.10;100122.73;91305;1269;23212;-65
2023/07/09 08:57:25;;;;;;;1.30;0.60;;;;;;;25.19;54.13;100120.70;91240;1269;139981;-66
2023/07/09 08:59:28;;;;;;;0.50;0.30;;;;;;;25.19;54.30;100125.23;91329;1270;22345;-65
2023/07/09 09:01:41;;;;;;;1.30;0.40;;;;;;;25.21;54.14;100120.08;91208;1269;138608;-66
2023/07/09 09:03:48;;;;;;;0.70;0.10;;;;;;;25.17;51.39;100122.30;91351;1270;22491;-67
2023/07/09 09:05:50;;;;;;;1.20;0.10;;;;;;;25.10;49.74;100121.23;91223;1269;138742;-67
2023/07/09 09:08:02;;;;;;;1.80;0.50;;;;;;;25.02;48.75;100125.58;91291;1269;22450;-66
2023/07/09 09:10:17;;;;;;;3.60;0.10;;;;;;;24.95;48.65;100122.77;91190;1270;22201;-67
2023/07/09 09:12:23;;;;;;;4.10;0.10;;;;;;;24.91;48.85;100118.84;91041;1257;138824;-67
2023/07/09 09:14:41;;;;;;;0.50;0.10;;;;;;;24.85;48.31;100119.11;91210;1270;22352;-67
2023/07/09 09:16:45;;;;;;;0.30;0.10;;;;;;;24.65;47.98;100125.70;91109;1269;137671;-66
2023/07/09 09:18:48;;;;;;;2.90;0.10;;;;;;;24.54;49.03;100125.73;91234;1270;22398;-65
2023/07/09 09:20:56;;;;;;;1.30;0.10;;;;;;;24.47;48.95;100119.13;91171;1269;139550;-68
2023/07/09 09:23:14;;;;;;;0.50;0.40;;;;;;;24.48;48.12;100118.31;91200;1270;22248;-68
2023/07/09 09:25:15;;;;;;;2.60;0.20;;;;;;;24.53;46.85;100123.45;91088;1270;138158;-67
2023/07/09 09:27:17;;;;;;;0.30;0.20;;;;;;;24.58;46.70;100119.94;91268;1253;22323;-66
2023/07/09 09:29:18;;;;;;;1.80;0.20;;;;;;;24.62;47.53;100119.02;91158;1269;137450;-66
2023/07/09 09:31:20;;;;;;;2.90;0.40;;;;;;;24.71;47.63;100117.40;91190;1270;22532;-65
2023/07/09 09:33:22;;;;;;;1.60;0.30;;;;;;;24.77;47.20;100113.95;91140;1269;138245;-68
2023/07/09 09:35:35;;;;;;;0.10;0.10;;;;;;;24.76;47.02;100121.51;91253;1257;22460;-69
2023/07/09 09:37:37;;;;;;;1.70;0.20;;;;;;;24.71;46.65;100117.84;91100;1269;138500;-67
2023/07/09 09:39:38;;;;;;;0.40;0.20;;;;;;;24.66;47.28;100121.11;91158;1270;23158;-67
2023/07/09 09:41:42;;;;;;;3.30;0.10;;;;;;;24.63;48.22;100118.90;91100;1270;138027;-68
2023/07/09 09:43:45;;;;;;;0.20;0.20;;;;;;;24.63;49.32;100110.79;91202;1270;22293;-67
2023/07/09 09:45:49;;;;;;;1.40;0.40;;;;;;;24.68;49.37;100114.39;91119;1270;139972;-66
2023/07/09 09:47:51;;;;;;;0.50;0.10;;;;;;;24.77;49.38;100111.95;91232;1270;22209;-67
2023/07/09 09:49:53;;;;;;;1.60;0.20;;;;;;;24.85;48.64;100115.02;90743;1270;137862;-69
2023/07/09 09:51:56;;;;;;;0.60;0.10;;;;;;;24.93;48.44;100107.85;91208;1269;23189;-66
2023/07/09 09:54:00;;;;;;;0.60;0.30;;;;;;;25.02;47.70;100102.08;91116;1270;139176;-66
2023/07/09 09:56:05;;;;;;;0.60;0.10;;;;;;;25.10;47.34;100105.09;91182;1270;22364;-66
2023/07/09 09:58:15;;;;;;;0.30;0.10;;;;;;;25.12;46.07;100102.77;91222;1270;22306;-67
2023/07/09 10:00:17;;;;;;;0.20;0.20;;;;;;;25.17;46.44;100113.58;91116;1262;138570;-68
2023/07/09 10:02:23;;;;;;;1.60;0.10;;;;;;;25.17;47.08;100114.23;91212;1270;22311;-67
2023/07/09 10:04:25;;;;;;;0.60;0.10;;;;;;;25.15;46.83;100109.83;91147;1270;139087;-67
2023/07/09 10:06:37;;;;;;;2.50;0.30;;;;;;;25.12;47.26;100101.58;91178;1267;22323;-66
2023/07/09 10:09:24;;;;;;;0.20;0.10;;;;;;;25.12;47.30;100100.05;91101;1270;139208;-67
2023/07/09 10:11:46;;;;;;;0.40;0.10;;;;;;;25.15;47.78;100107.27;91199;1270;22818;-66
2023/07/09 10:13:51;;;;;;;0.40;0.10;;;;;;;25.12;47.02;100107.20;91117;1270;139134;-68
2023/07/09 10:15:56;;;;;;;0.40;0.10;;;;;;;25.16;46.61;100112.88;91175;1255;23044;-66
2023/07/09 10:18:27;;;;;;;1.30;0.10;;;;;;;25.12;45.97;100115.21;91112;1270;137098;-68
2023/07/09 10:20:42;;;;;;;0.20;0.10;;;;;;;25.09;46.15;100112.31;91094;1270;137849;-67
2023/07/09 10:22:54;;;;;;;2.40;0.20;;;;;;;25.01;45.93;100110.71;91198;1271;23207;-68
2023/07/09 10:25:13;;;;;;;0.30;0.20;;;;;;;24.87;46.03;100114.84;91128;1262;139441;-65
2023/07/09 10:27:23;;;;;;;0.20;0.10;;;;;;;24.77;46.50;100111.02;91253;1256;23024;-67
2023/07/09 10:29:38;;;;;;;2.00;0.30;;;;;;;24.75;46.68;100109.73;91112;1269;137341;-66
2023/07/09 10:32:00;;;;;;;1.50;0.20;;;;;;;24.78;47.68;100107.58;91204;1270;22348;-67
2023/07/09 10:34:22;;;;;;;0.20;0.20;;;;;;;24.86;47.10;100106.58;91111;1269;138209;-67
2023/07/09 10:36:36;;;;;;;0.50;0.10;;;;;;;24.97;47.59;100105.36;91072;1270;140958;-67
2023/07/09 10:38:47;;;;;;;0.30;0.20;;;;;;;25.07;47.75;100105.24;91202;1270;23362;-68
2023/07/09 10:40:55;;;;;;;0.30;0.10;;;;;;;25.19;47.27;100097.52;91089;1270;138185;-67
2023/07/09 10:43:00;;;;;;;0.40;0.20;;;;;;;25.28;46.86;100102.67;91187;1270;23159;-66
2023/07/09 10:45:20;;;;;;;0.50;0.10;;;;;;;25.31;46.25;100100.34;91097;1270;138252;-68
2023/07/09 10:47:31;;;;;;;1.10;0.20;;;;;;;25.31;46.52;100097.13;91223;1270;22214;-67
2023/07/09 10:49:42;;;;;;;0.10;0.10;;;;;;;25.32;46.78;100103.92;91082;1269;137324;-65
2023/07/09 10:51:59;;;;;;;0.40;0.10;;;;;;;25.30;45.61;100103.40;91092;1271;22404;-66
2023/07/09 10:54:06;;;;;;;1.00;0.20;;;;;;;25.30;45.24;100096.91;91094;1270;138635;-66
2023/07/09 10:56:16;;;;;;;0.70;0.10;;;;;;;25.30;45.21;100101.60;91152;1269;137710;-67
2023/07/09 10:58:33;;;;;;;0.50;0.20;;;;;;;25.32;45.08;100098.48;91212;1270;22352;-66
2023/07/09 11:00:37;;;;;;;2.60;0.20;;;;;;;25.34;45.06;100092.17;91107;1270;138969;-68
2023/07/09 11:02:39;;;;;;;;;;;;;;;25.38;45.31;100085.45;91265;1270;22417;-67
2023/07/09 11:04:49;;;;;;;0.40;0.20;;;;;;;25.46;45.56;100090.11;91152;1269;123898;-66
2023/07/09 11:06:55;;;;;;;0.30;0.20;;;;;;;25.54;45.42;100081.59;91105;1272;22317;-66
2023/07/09 11:08:58;;;;;;;0.30;0.30;;;;;;;25.60;45.46;100082.04;91113;1270;139143;-66
2023/07/09 11:11:04;;;;;;;0.20;0.20;;;;;;;25.66;45.25;100082.24;91229;1270;23606;-66
2023/07/09 11:13:23;;;;;;;1.00;0.70;;;;;;;25.76;45.35;100079.36;91117;1269;137894;-67
2023/07/09 11:15:37;;;;;;;3.50;0.20;;;;;;;25.82;45.45;100085.88;91202;1269;22374;-67
2023/07/09 11:17:43;;;;;;;0.50;0.30;;;;;;;25.86;44.88;100085.65;90989;1272;138914;-67
2023/07/09 11:19:47;;;;;;;0.80;0.20;;;;;;;25.88;44.43;100083.81;91199;1270;22828;-66
2023/07/09 11:21:59;;;;;;;;;;;;;;;25.84;44.11;100071.58;91127;1269;139263;-66
2023/07/09 11:24:01;;;;;;;1.50;0.20;;;;;;;25.89;44.47;100069.56;91230;1269;22467;-66
2023/07/09 11:26:13;;;;;;;4.20;0.40;;;;;;;25.91;43.69;100077.55;91093;1263;138311;-66
2023/07/09 11:28:14;;;;;;;1.50;0.20;;;;;;;25.98;44.02;100083.04;91121;1259;138894;-64
2023/07/09 11:30:25;;;;;;;0.60;0.10;;;;;;;26.01;44.42;100085.61;91104;1272;22347;-65
2023/07/09 11:32:28;;;;;;;0.90;0.20;;;;;;;26.06;44.37;100089.30;91061;1270;138064;-64
2023/07/09 11:34:29;;;;;;;0.80;0.10;;;;;;;26.09;43.61;100084.48;91187;1269;22395;-65
2023/07/09 11:36:31;;;;;;;0.90;0.20;;;;;;;26.09;43.48;100081.27;91043;1269;138712;-65
2023/07/09 11:38:44;;;;;;;0.30;0.20;;;;;;;26.09;42.89;100086.02;91218;1269;22383;-63
2023/07/09 11:40:54;;;;;;;2.50;0.20;;;;;;;26.15;42.77;100082.09;91077;1271;139330;-64
2023/07/09 11:42:58;;;;;;;1.80;0.20;;;;;;;26.20;43.24;100080.42;91215;1260;22226;-63
2023/07/09 11:45:09;;;;;;;0.50;0.10;;;;;;;26.26;43.27;100077.55;91094;1270;139281;-62
2023/07/09 11:47:19;;;;;;;0.20;0.20;;;;;;;26.27;43.08;100077.70;91238;1270;22228;-65
2023/07/09 11:49:25;;;;;;;0.30;0.20;;;;;;;26.28;43.35;100076.54;91123;1271;137483;-64
2023/07/09 11:51:38;;;;;;;1.50;0.50;;;;;;;26.26;43.91;100070.94;91248;1269;22203;-65
2023/07/09 11:53:55;;;;;;;0.70;0.30;;;;;;;26.23;43.56;100062.80;91127;1266;139029;-63
2023/07/09 11:55:57;;;;;;;1.00;0.20;;;;;;;26.29;43.35;100082.58;91264;1270;22226;-66
2023/07/09 11:58:03;;;;;;;1.10;0.20;;;;;;;26.23;42.22;100083.28;91122;1270;137208;-65
2023/07/09 12:00:05;;;;;;;2.30;0.20;;;;;;;26.16;42.01;100079.58;91113;1270;137969;-65
2023/07/09 12:02:21;;;;;;;2.30;0.20;;;;;;;26.04;42.35;100073.65;91248;1270;23082;-64
2023/07/09 12:04:32;;;;;;;2.00;0.40;;;;;;;25.94;43.16;100070.36;91136;1270;137747;-65
2023/07/09 12:06:38;;;;;;;0.90;0.20;;;;;;;25.88;43.04;100072.95;91239;1270;22383;-64
2023/07/09 12:08:41;;;;;;;3.20;0.10;;;;;;;25.83;43.08;100070.23;91081;1268;137408;-63
2023/07/09 12:10:44;;;;;;;1.10;0.20;;;;;;;25.79;42.82;100072.92;91288;1269;23062;-64
2023/07/09 12:12:45;;;;;;;0.80;0.20;;;;;;;25.76;42.48;100071.83;91160;1269;139494;-63
2023/07/09 12:14:48;;;;;;;0.50;0.10;;;;;;;25.71;43.08;100069.92;91258;1269;22341;-63
2023/07/09 12:16:52;;;;;;;0.60;0.20;;;;;;;25.66;42.90;100066.34;91157;1256;137570;-64
2023/07/09 12:18:54;;;;;;;0.60;0.20;;;;;;;25.58;43.09;100052.16;91152;1272;22081;-64
2023/07/09 12:20:56;;;;;;;0.50;0.20;;;;;;;25.62;43.60;100050.89;91146;1270;138655;-63
2023/07/09 12:22:58;;;;;;;1.00;0.20;;;;;;;25.65;44.01;100052.06;91222;1270;22289;-63